Time;durP1;ratioP1;P1;durP2;ratioP2;P2;SDS_P1;SDS_P2;PMS_P1;PMS_P2;Temp;Humidity;BMP_temperature;BMP_pressure;BME280_temperature;BME280_humidity;BME280_pressure;Samples;Min_cycle;Max_cycle;Signal;HPM_P1;HPM_P2
2022/07/22 00:01:43;;;;;;;1.63;0.98;;;;;;;21.79;64.55;100786.75;4968205;28;102610;-53
2022/07/22 00:04:10;;;;;;;1.33;0.90;;;;;;;21.79;64.37;100793.09;4976057;28;103886;-53
2022/07/22 00:06:38;;;;;;;3.33;1.05;;;;;;;21.79;64.62;100787.53;4977507;28;102410;-53
2022/07/22 00:09:07;;;;;;;2.15;1.08;;;;;;;21.79;64.45;100800.59;4976538;28;102501;-53
2022/07/22 00:11:35;;;;;;;1.83;1.15;;;;;;;21.79;64.49;100795.84;4978663;28;102220;-53
2022/07/22 00:14:05;;;;;;;2.58;1.10;;;;;;;21.80;64.34;100800.22;4976235;28;103954;-53
2022/07/22 00:16:33;;;;;;;1.90;1.13;;;;;;;21.79;64.52;100787.53;4977176;28;102543;-53
2022/07/22 00:18:59;;;;;;;1.67;1.17;;;;;;;21.79;64.44;100797.81;4977281;28;102316;-53
2022/07/22 00:21:26;;;;;;;3.47;1.13;;;;;;;21.79;64.42;100798.63;4977498;28;102429;-53
2022/07/22 00:23:53;;;;;;;2.83;1.13;;;;;;;21.79;64.39;100795.06;4975934;28;103930;-53
2022/07/22 00:26:20;;;;;;;4.38;0.90;;;;;;;21.79;64.54;100795.84;4976028;28;102260;-53
2022/07/22 00:28:47;;;;;;;1.73;1.20;;;;;;;21.79;64.33;100795.06;4976218;28;102118;-53
2022/07/22 00:31:14;;;;;;;3.05;1.00;;;;;;;21.78;64.41;100797.03;4976377;28;102173;-53
2022/07/22 00:33:41;;;;;;;1.10;1.00;;;;;;;21.78;64.31;100797.03;4976696;28;103978;-53
2022/07/22 00:36:08;;;;;;;1.23;0.98;;;;;;;21.78;64.69;100802.56;4977182;28;102142;-53
2022/07/22 00:38:38;;;;;;;2.28;1.25;;;;;;;21.78;64.41;100797.03;4964499;28;102179;-53
2022/07/22 00:41:04;;;;;;;2.93;1.07;;;;;;;21.77;64.59;100806.47;4964434;28;102223;-53
2022/07/22 00:43:51;;;;;;;1.77;0.80;;;;;;;21.78;64.66;100807.25;4976136;28;105333;-53
2022/07/22 00:46:18;;;;;;;5.00;2.20;;;;;;;21.78;64.55;100807.25;4976427;28;102655;-53
2022/07/22 00:48:44;;;;;;;1.48;1.00;;;;;;;21.77;64.34;100803.69;4976852;28;101954;-53
2022/07/22 00:51:13;;;;;;;1.83;1.13;;;;;;;21.77;64.60;100800.13;4977370;28;102145;-53
2022/07/22 00:53:40;;;;;;;1.30;1.10;;;;;;;21.77;64.47;100798.16;4975969;28;104105;-53
2022/07/22 00:56:07;;;;;;;1.77;1.30;;;;;;;21.78;64.56;100799.78;4977460;28;102570;-53
2022/07/22 00:58:35;;;;;;;;;;;;;;;21.77;64.31;100795.38;4975752;28;101990;-53
2022/07/22 01:01:04;;;;;;;1.88;1.10;;;;;;;21.77;64.46;100794.56;4978258;28;102490;-53
2022/07/22 01:03:31;;;;;;;1.92;1.10;;;;;;;21.77;64.47;100783.50;4976818;28;103832;-53
2022/07/22 01:05:57;;;;;;;1.15;0.75;;;;;;;21.76;64.60;100788.22;4977224;28;102429;-53
2022/07/22 01:08:24;;;;;;;2.13;1.02;;;;;;;21.76;64.69;100782.69;4976155;28;101923;-53
2022/07/22 01:10:53;;;;;;;2.65;1.05;;;;;;;21.77;64.73;100784.31;4975892;28;102287;-53
2022/07/22 01:13:20;;;;;;;1.80;1.00;;;;;;;21.76;64.53;100777.16;4975984;28;104168;-53
2022/07/22 01:15:46;;;;;;;1.17;1.00;;;;;;;21.76;64.41;100776.34;4976510;28;102221;-53
2022/07/22 01:18:15;;;;;;;2.60;0.88;;;;;;;21.76;64.61;100782.69;4961199;28;102205;-53
2022/07/22 01:20:46;;;;;;;1.75;1.10;;;;;;;21.76;64.38;100774.38;4958962;28;102056;-53
2022/07/22 01:23:13;;;;;;;1.48;0.90;;;;;;;21.77;64.53;100770.44;4968722;28;103952;-53
2022/07/22 01:25:40;;;;;;;1.55;1.00;;;;;;;21.76;64.62;100771.63;4976029;28;101951;-53
2022/07/22 01:28:08;;;;;;;1.08;0.90;;;;;;;21.76;64.81;100771.63;4975522;28;101821;-53
2022/07/22 01:30:35;;;;;;;1.13;0.85;;;;;;;21.76;64.67;100777.16;4977479;28;102535;-53
2022/07/22 01:33:01;;;;;;;1.98;1.00;;;;;;;21.77;64.90;100778.75;4968598;28;103955;-53
2022/07/22 01:35:28;;;;;;;2.88;1.00;;;;;;;21.76;64.62;100776.34;4970618;28;102143;-53
2022/07/22 01:37:57;;;;;;;1.80;0.98;;;;;;;21.76;64.51;100771.63;4969259;28;102757;-53
2022/07/22 01:40:23;;;;;;;2.23;0.80;;;;;;;21.77;64.39;100777.97;4970311;28;102259;-53
2022/07/22 01:42:51;;;;;;;1.33;1.00;;;;;;;21.77;64.42;100767.69;4976195;28;104046;-53
2022/07/22 01:45:17;;;;;;;1.02;0.93;;;;;;;21.77;64.39;100766.88;4976950;28;102342;-53
2022/07/22 01:47:44;;;;;;;2.22;1.00;;;;;;;21.77;64.51;100767.69;4975553;28;102189;-53
2022/07/22 01:50:11;;;;;;;1.52;0.90;;;;;;;21.76;64.50;100768.03;4977852;28;102227;-53
2022/07/22 01:52:39;;;;;;;1.52;1.00;;;;;;;21.76;64.36;100766.06;4975775;28;104031;-53
2022/07/22 01:55:08;;;;;;;1.17;0.80;;;;;;;21.76;64.52;100773.56;4976264;28;102323;-53
2022/07/22 01:57:36;;;;;;;1.30;0.93;;;;;;;21.76;64.54;100771.63;4974800;28;102649;-53
2022/07/22 02:00:05;;;;;;;10.35;1.33;;;;;;;21.76;64.43;100771.63;4976578;28;102087;-53
2022/07/22 02:02:31;;;;;;;16.75;1.30;;;;;;;21.76;64.39;100768.84;4976446;28;103880;-53
2022/07/22 02:04:58;;;;;;;1.27;0.80;;;;;;;21.76;64.40;100770.81;4976594;28;102012;-53
2022/07/22 02:07:25;;;;;;;1.10;0.93;;;;;;;21.75;64.79;100764.47;4975278;28;102503;-53
2022/07/22 02:09:52;;;;;;;1.17;0.90;;;;;;;21.75;64.67;100770.00;4976920;28;102166;-53
2022/07/22 02:12:23;;;;;;;1.10;1.00;;;;;;;21.75;64.70;100772.78;4975552;28;103934;-53
2022/07/22 02:14:49;;;;;;;1.60;1.02;;;;;;;21.75;64.81;100764.47;4976329;28;101945;-53
2022/07/22 02:17:16;;;;;;;2.83;1.20;;;;;;;21.75;64.54;100770.00;4975289;28;102265;-53
2022/07/22 02:19:43;;;;;;;3.10;1.40;;;;;;;21.75;64.55;100774.75;4975625;28;102471;-53
2022/07/22 02:22:10;;;;;;;1.13;0.90;;;;;;;21.75;64.52;100772.78;4976536;28;104125;-53
2022/07/22 02:24:37;;;;;;;0.80;0.70;;;;;;;21.75;64.62;100786.63;4978687;28;102437;-53
2022/07/22 02:27:04;;;;;;;1.15;1.05;;;;;;;21.75;64.73;100781.09;4978493;28;102088;-53
2022/07/22 02:29:33;;;;;;;2.17;0.95;;;;;;;21.75;64.67;100775.53;4960808;28;102313;-53
2022/07/22 02:32:02;;;;;;;1.20;0.90;;;;;;;21.75;64.71;100775.53;4971306;28;103965;-53
2022/07/22 02:34:29;;;;;;;2.63;1.10;;;;;;;21.74;64.61;100776.69;4979131;28;102424;-53
2022/07/22 02:36:55;;;;;;;1.75;1.10;;;;;;;21.73;64.45;100774.25;4979464;28;102410;-53
2022/07/22 02:39:22;;;;;;;1.08;0.98;;;;;;;21.74;64.50;100773.91;4978349;28;102750;-53
2022/07/22 02:41:48;;;;;;;1.13;1.02;;;;;;;21.74;64.51;100779.44;4976408;28;104106;-53
2022/07/22 02:44:15;;;;;;;2.20;1.00;;;;;;;21.74;64.50;100785.00;4978721;28;102238;-53
2022/07/22 02:46:43;;;;;;;1.23;0.98;;;;;;;21.75;64.47;100786.63;4979314;28;102422;-53
2022/07/22 02:49:09;;;;;;;1.50;1.00;;;;;;;21.73;64.43;100783.38;4979973;28;102309;-53
2022/07/22 02:51:36;;;;;;;1.30;1.00;;;;;;;21.75;64.74;100788.59;4976146;28;104209;-53
2022/07/22 02:54:03;;;;;;;3.13;0.93;;;;;;;21.73;64.57;100788.91;4978310;28;102171;-53
2022/07/22 02:56:29;;;;;;;1.00;0.90;;;;;;;21.73;64.33;100788.13;4978341;28;102157;-53
2022/07/22 02:58:56;;;;;;;3.20;1.10;;;;;;;21.73;64.48;100783.38;4980014;28;102205;-53
2022/07/22 03:01:22;;;;;;;2.17;0.88;;;;;;;21.73;64.45;100783.38;4976772;28;104018;-53
2022/07/22 03:03:50;;;;;;;1.98;0.85;;;;;;;21.73;64.29;100788.13;4977533;28;102285;-53
2022/07/22 03:06:18;;;;;;;2.00;1.13;;;;;;;21.72;64.59;100787.31;4978023;28;102011;-53
2022/07/22 03:08:45;;;;;;;1.65;0.93;;;;;;;21.71;64.33;100780.16;4979760;28;102284;-53
2022/07/22 03:11:12;;;;;;;2.22;1.13;;;;;;;21.73;64.58;100791.69;4977026;28;104033;-53
2022/07/22 03:13:38;;;;;;;1.17;0.80;;;;;;;21.72;64.83;100794.81;4977988;28;102022;-53
2022/07/22 03:16:05;;;;;;;1.42;0.90;;;;;;;21.71;65.05;100796.78;4965893;28;102207;-53
2022/07/22 03:18:31;;;;;;;1.48;1.00;;;;;;;21.71;65.31;100795.94;4973522;28;102268;-53
2022/07/22 03:21:01;;;;;;;1.60;1.08;;;;;;;21.72;65.26;100798.38;4977548;28;104442;-53
2022/07/22 03:23:28;;;;;;;1.25;0.90;;;;;;;21.72;65.09;100792.84;4978502;28;102344;-53
2022/07/22 03:25:56;;;;;;;1.05;0.80;;;;;;;21.72;65.48;100781.78;4977195;28;102300;-53
2022/07/22 03:28:23;;;;;;;1.58;0.90;;;;;;;21.73;65.23;100788.13;4972430;28;102303;-53
2022/07/22 03:30:49;;;;;;;1.90;0.85;;;;;;;21.73;65.64;100786.16;4976719;28;104058;-53
2022/07/22 03:33:16;;;;;;;1.02;0.95;;;;;;;21.75;65.95;100786.63;4977920;28;102456;-53
2022/07/22 03:35:42;;;;;;;1.50;0.88;;;;;;;21.73;65.65;100794.47;4969836;28;102336;-53
2022/07/22 03:38:11;;;;;;;1.10;0.80;;;;;;;21.73;65.92;100783.38;4969794;28;102233;-53
2022/07/22 03:40:37;;;;;;;1.23;1.00;;;;;;;21.74;66.01;100787.75;4975470;28;104255;-52
2022/07/22 03:43:05;;;;;;;0.95;0.82;;;;;;;21.74;66.09;100787.75;4977970;28;102106;-53
2022/07/22 03:45:31;;;;;;;2.35;0.82;;;;;;;21.74;65.97;100789.72;4977840;28;101917;-52
2022/07/22 03:47:57;;;;;;;1.45;1.15;;;;;;;21.74;66.20;100793.28;4978565;28;102226;-53
2022/07/22 03:50:24;;;;;;;2.90;0.85;;;;;;;21.74;66.24;100793.28;4976513;28;103931;-52
2022/07/22 03:52:51;;;;;;;1.35;0.90;;;;;;;21.74;66.24;100789.72;4978332;28;102063;-52
2022/07/22 03:55:19;;;;;;;2.28;1.30;;;;;;;21.74;66.29;100784.19;4977933;28;102227;-52
2022/07/22 03:57:47;;;;;;;3.15;1.10;;;;;;;21.75;66.30;100791.38;4978763;28;102214;-53
2022/07/22 04:00:14;;;;;;;0.98;0.73;;;;;;;21.76;66.34;100799.31;4969027;28;104026;-53
2022/07/22 04:02:40;;;;;;;1.95;0.80;;;;;;;21.76;66.34;100798.50;4971220;28;102462;-53
2022/07/22 04:05:07;;;;;;;1.17;0.85;;;;;;;21.76;66.58;100799.31;4967621;28;102575;-53
2022/07/22 04:07:33;;;;;;;1.35;0.88;;;;;;;21.77;66.66;100800.91;4978567;28;102202;-53
2022/07/22 04:10:06;;;;;;;1.00;0.90;;;;;;;21.77;66.35;100795.38;4975899;28;104040;-53
2022/07/22 04:12:36;;;;;;;1.08;0.85;;;;;;;21.79;66.47;100798.63;4974316;28;102307;-53
2022/07/22 04:15:03;;;;;;;1.48;0.80;;;;;;;21.79;66.50;100798.63;4977684;28;102563;-53
2022/07/22 04:17:30;;;;;;;1.00;0.90;;;;;;;21.79;66.37;100809.72;4978761;28;102154;-53
2022/07/22 04:19:57;;;;;;;1.17;0.90;;;;;;;21.80;66.60;100805.78;4964179;28;103977;-53
2022/07/22 04:22:24;;;;;;;0.63;0.63;;;;;;;21.80;66.44;100800.22;4973495;28;102187;-53
2022/07/22 04:24:50;;;;;;;4.47;1.00;;;;;;;21.81;66.49;100799.06;4977481;28;102194;-53
2022/07/22 04:27:18;;;;;;;1.97;0.90;;;;;;;21.81;66.59;100799.06;4978392;28;102213;-53
2022/07/22 04:29:46;;;;;;;1.45;1.17;;;;;;;21.82;66.68;100797.94;4976324;28;103974;-52
2022/07/22 04:32:13;;;;;;;1.30;0.80;;;;;;;21.82;66.46;100792.41;4976323;28;102301;-53
2022/07/22 04:34:39;;;;;;;0.88;0.82;;;;;;;21.82;66.51;100800.72;4977367;28;102396;-53
2022/07/22 04:37:06;;;;;;;0.90;0.70;;;;;;;21.84;66.65;100801.16;4978625;28;102216;-53
2022/07/22 04:39:32;;;;;;;1.60;0.90;;;;;;;21.84;66.32;100801.16;4977111;28;104138;-53
2022/07/22 04:42:00;;;;;;;0.80;0.80;;;;;;;21.85;66.51;100807.50;4975259;28;102290;-52
2022/07/22 04:44:27;;;;;;;2.45;1.00;;;;;;;21.84;66.47;100806.69;4977110;28;102051;-53
2022/07/22 04:46:54;;;;;;;2.25;0.80;;;;;;;21.84;66.59;100812.25;4977668;28;102402;-53
2022/07/22 04:49:21;;;;;;;1.13;0.75;;;;;;;21.86;66.58;100808.34;4977030;28;107816;-53
2022/07/22 04:51:48;;;;;;;1.52;1.10;;;;;;;21.86;66.62;100805.56;4975836;28;102393;-53
2022/07/22 04:54:14;;;;;;;1.50;1.15;;;;;;;21.86;66.59;100805.56;4976323;28;102318;-53
2022/07/22 04:56:41;;;;;;;1.20;1.10;;;;;;;21.87;66.73;100809.94;4977760;28;102113;-53
2022/07/22 04:59:08;;;;;;;0.98;0.85;;;;;;;21.87;66.62;100805.22;4975902;28;104006;-53
2022/07/22 05:01:34;;;;;;;1.08;0.98;;;;;;;21.87;66.63;100799.66;4976306;28;102102;-52
2022/07/22 05:04:03;;;;;;;1.23;0.90;;;;;;;21.90;66.40;100798.19;4975394;28;102204;-53
2022/07/22 05:06:30;;;;;;;2.28;0.82;;;;;;;21.89;66.52;100799.31;4977697;28;102487;-53
2022/07/22 05:08:57;;;;;;;1.33;1.10;;;;;;;21.92;66.53;100795.84;4972657;28;103959;-53
2022/07/22 05:11:23;;;;;;;0.80;0.80;;;;;;;21.91;66.62;100797.00;4975712;28;103549;-53
2022/07/22 05:13:51;;;;;;;1.58;0.98;;;;;;;21.93;66.55;100803.84;4975305;28;102564;-53
2022/07/22 05:16:18;;;;;;;1.20;1.10;;;;;;;21.95;66.57;100804.28;4977718;28;102329;-53
2022/07/22 05:18:47;;;;;;;0.60;0.60;;;;;;;21.95;66.72;100801.50;4973418;28;104004;-52
2022/07/22 05:21:15;;;;;;;1.75;0.90;;;;;;;21.97;66.61;100810.28;4976208;28;102539;-52
2022/07/22 05:23:42;;;;;;;1.67;0.82;;;;;;;21.99;66.81;100804.41;4976535;28;102320;-52
2022/07/22 05:26:09;;;;;;;1.60;1.00;;;;;;;22.00;66.63;100806.84;4977457;28;102407;-53
2022/07/22 05:28:36;;;;;;;1.20;0.90;;;;;;;22.02;66.56;100800.94;4976009;28;103937;-53
2022/07/22 05:31:02;;;;;;;1.42;0.88;;;;;;;22.04;66.52;100791.13;4975366;28;102231;-53
2022/07/22 05:33:29;;;;;;;0.85;0.77;;;;;;;22.07;66.56;100797.94;4972329;28;102268;-52
2022/07/22 05:35:55;;;;;;;1.00;1.00;;;;;;;22.08;66.55;100796.78;4972942;28;104695;-53
2022/07/22 05:38:23;;;;;;;1.00;0.90;;;;;;;22.10;66.51;100797.22;4965689;28;103876;-53
2022/07/22 05:40:50;;;;;;;1.65;0.90;;;;;;;22.12;66.39;100800.47;4972233;28;102292;-53
2022/07/22 05:43:16;;;;;;;1.25;0.90;;;;;;;22.14;66.54;100803.72;4974347;28;102280;-53
2022/07/22 05:45:43;;;;;;;3.08;1.10;;;;;;;22.14;66.58;100792.63;4977599;28;102412;-52
2022/07/22 05:48:09;;;;;;;1.00;0.88;;;;;;;22.16;66.43;100790.34;4974219;28;104011;-53
2022/07/22 05:50:36;;;;;;;1.25;0.90;;;;;;;22.19;66.25;100789.63;4976928;28;102182;-53
2022/07/22 05:53:03;;;;;;;2.00;1.10;;;;;;;22.20;66.20;100794.03;4975674;28;102548;-53
2022/07/22 05:55:31;;;;;;;1.20;1.10;;;;;;;22.23;66.16;100790.56;4973897;28;102490;-53
2022/07/22 05:57:58;;;;;;;1.57;1.00;;;;;;;22.26;66.02;100789.88;4974223;28;103967;-53
2022/07/22 06:00:25;;;;;;;1.00;0.90;;;;;;;22.28;65.31;100781.19;4979542;28;102018;-53
2022/07/22 06:02:51;;;;;;;1.75;1.00;;;;;;;22.29;65.61;100783.63;4979056;28;102210;-53
2022/07/22 06:05:17;;;;;;;1.70;1.02;;;;;;;22.29;65.34;100782.81;4971615;28;102282;-53
2022/07/22 06:07:46;;;;;;;1.52;1.30;;;;;;;22.29;65.30;100780.84;4973177;28;103828;-53
2022/07/22 06:10:12;;;;;;;1.20;1.00;;;;;;;22.31;65.54;100781.28;4960384;28;101890;-53
2022/07/22 06:12:40;;;;;;;3.00;1.13;;;;;;;22.30;65.94;100776.91;4968864;28;102468;-53
2022/07/22 06:15:07;;;;;;;1.77;1.10;;;;;;;22.31;65.97;100784.06;4977085;28;103096;-53
2022/07/22 06:17:34;;;;;;;1.52;1.00;;;;;;;22.33;65.94;100777.38;4967132;28;103933;-53
2022/07/22 06:20:00;;;;;;;1.92;1.17;;;;;;;22.34;65.34;100784.53;4973625;28;102120;-53
2022/07/22 06:22:27;;;;;;;1.45;0.90;;;;;;;22.36;65.94;100787.75;4969294;28;102274;-53
2022/07/22 06:24:54;;;;;;;1.73;1.15;;;;;;;22.35;65.90;100769.50;4963665;28;102156;-53
2022/07/22 06:27:20;;;;;;;1.50;1.35;;;;;;;22.35;65.83;100781.41;4958403;28;103728;-53
2022/07/22 06:29:48;;;;;;;1.90;1.15;;;;;;;22.36;65.75;100771.13;4959731;28;101979;-53
2022/07/22 06:32:15;;;;;;;1.48;1.30;;;;;;;22.36;65.81;100763.63;4974967;28;102307;-53
2022/07/22 06:34:41;;;;;;;2.15;1.10;;;;;;;22.37;65.75;100761.66;4967325;28;102212;-53
2022/07/22 06:37:08;;;;;;;1.48;1.13;;;;;;;22.36;65.97;100760.84;4975034;28;103907;-53
2022/07/22 06:39:35;;;;;;;1.63;1.10;;;;;;;22.38;65.87;100768.81;4976466;28;102288;-53
2022/07/22 06:42:01;;;;;;;2.80;1.23;;;;;;;22.40;65.74;100766.50;4971827;28;102292;-53
2022/07/22 06:44:28;;;;;;;1.52;1.27;;;;;;;22.40;65.76;100772.88;4965351;28;102751;-53
2022/07/22 06:46:56;;;;;;;1.38;1.25;;;;;;;22.41;65.50;100779.22;4958408;28;103986;-53
2022/07/22 06:49:23;;;;;;;1.23;1.13;;;;;;;22.42;64.93;100783.59;4960275;28;102346;-53
2022/07/22 06:51:49;;;;;;;2.45;1.30;;;;;;;22.42;65.47;100780.81;4963821;28;102316;-53
2022/07/22 06:54:16;;;;;;;1.67;1.20;;;;;;;22.43;65.30;100782.44;4971754;28;102589;-53
2022/07/22 06:56:43;;;;;;;2.45;1.33;;;;;;;22.41;65.47;100774.47;4966429;28;103941;-53
2022/07/22 06:59:13;;;;;;;1.35;1.20;;;;;;;22.43;64.77;100787.97;4966693;28;102388;-53
2022/07/22 07:01:39;;;;;;;1.27;1.15;;;;;;;22.44;64.48;100784.06;4966234;28;102465;-53
2022/07/22 07:04:07;;;;;;;2.60;1.10;;;;;;;22.44;64.61;100790.41;4969313;28;103534;-53
2022/07/22 07:06:34;;;;;;;1.63;1.30;;;;;;;22.45;65.35;100794.00;4960349;28;103923;-53
2022/07/22 07:09:01;;;;;;;1.40;1.30;;;;;;;22.44;65.20;100786.84;4970333;28;102278;-53
2022/07/22 07:11:27;;;;;;;1.90;1.10;;;;;;;22.45;64.73;100789.25;4965828;28;102250;-53
2022/07/22 07:13:54;;;;;;;5.97;1.45;;;;;;;22.45;65.32;100796.75;4962108;28;102317;-53
2022/07/22 07:16:21;;;;;;;2.17;1.38;;;;;;;22.45;65.52;100792.03;4975375;28;103928;-53
2022/07/22 07:18:48;;;;;;;3.05;1.50;;;;;;;22.46;65.01;100792.81;4977081;28;101996;-53
2022/07/22 07:21:18;;;;;;;3.42;1.50;;;;;;;22.48;64.02;100796.06;4960828;28;102372;-53
2022/07/22 07:23:45;;;;;;;1.80;1.55;;;;;;;22.49;64.36;100800.44;4965816;28;102121;-53
2022/07/22 07:26:13;;;;;;;2.08;1.55;;;;;;;22.48;65.11;100801.63;4965963;28;104077;-53
2022/07/22 07:28:40;;;;;;;1.53;1.43;;;;;;;22.47;64.63;100797.22;4972130;28;102591;-53
2022/07/22 07:31:07;;;;;;;1.95;1.33;;;;;;;22.48;64.99;100798.84;4964927;28;102510;-53
2022/07/22 07:33:34;;;;;;;2.13;1.60;;;;;;;22.48;64.42;100790.53;4966416;28;102256;-53
2022/07/22 07:36:01;;;;;;;2.43;1.27;;;;;;;22.48;64.62;100788.53;4966519;28;104033;-53
2022/07/22 07:38:29;;;;;;;1.92;1.52;;;;;;;22.49;64.45;100786.59;4960043;28;102254;-53
2022/07/22 07:40:56;;;;;;;5.40;1.65;;;;;;;22.47;65.68;100786.94;4957530;28;102003;-53
2022/07/22 07:43:23;;;;;;;1.75;1.65;;;;;;;22.48;64.32;100790.53;4959243;28;102135;-53
2022/07/22 07:45:49;;;;;;;1.60;1.50;;;;;;;22.49;65.32;100781.03;4966542;28;104138;-53
2022/07/22 07:48:19;;;;;;;2.47;1.73;;;;;;;22.49;65.38;100783.81;4974023;28;102429;-53
2022/07/22 07:50:46;;;;;;;1.92;1.63;;;;;;;22.49;64.89;100778.25;4966795;28;102387;-53
2022/07/22 07:53:14;;;;;;;2.20;1.65;;;;;;;22.48;65.07;100768.34;4967165;28;102286;-53
2022/07/22 07:55:42;;;;;;;2.00;1.80;;;;;;;22.50;65.28;100768.78;4972675;28;104029;-53
2022/07/22 07:58:09;;;;;;;3.13;1.80;;;;;;;22.49;64.48;100776.28;4972263;28;102450;-53
2022/07/22 08:00:36;;;;;;;1.88;1.60;;;;;;;22.49;65.74;100781.03;4976611;28;102562;-53
2022/07/22 08:03:03;;;;;;;1.90;1.70;;;;;;;22.48;65.93;100769.13;4978333;28;102224;-53
2022/07/22 08:05:31;;;;;;;;;;;;;;;22.50;65.61;100777.09;4977027;28;104017;-53
2022/07/22 08:07:57;;;;;;;1.90;1.70;;;;;;;22.51;65.35;100770.41;4975463;28;102163;-53
2022/07/22 08:10:24;;;;;;;3.58;2.08;;;;;;;22.50;65.57;100757.69;4973475;28;102401;-53
2022/07/22 08:12:55;;;;;;;2.75;1.60;;;;;;;22.52;63.88;100774.78;4973751;28;102556;-53
2022/07/22 08:15:21;;;;;;;2.03;1.80;;;;;;;22.53;63.90;100766.09;4966754;28;103989;-53
2022/07/22 08:17:49;;;;;;;2.20;1.65;;;;;;;22.53;64.73;100776.41;4975842;28;102054;-53
2022/07/22 08:20:16;;;;;;;2.28;1.60;;;;;;;22.53;63.96;100765.31;4973741;28;102457;-53
2022/07/22 08:22:42;;;;;;;1.88;1.77;;;;;;;22.53;64.52;100771.66;4978642;28;102116;-53
2022/07/22 08:25:08;;;;;;;2.00;1.90;;;;;;;22.53;64.47;100765.31;4976401;28;103977;-53
2022/07/22 08:27:36;;;;;;;1.98;1.88;;;;;;;22.53;64.99;100766.09;4977827;28;101895;-53
2022/07/22 08:30:05;;;;;;;2.20;1.70;;;;;;;22.52;64.77;100766.47;4976409;28;102301;-53
2022/07/22 08:32:32;;;;;;;3.00;2.00;;;;;;;22.54;64.20;100766.94;4976863;28;102820;-53
2022/07/22 08:34:59;;;;;;;2.40;2.20;;;;;;;22.54;65.27;100766.94;4973630;28;103975;-53
2022/07/22 08:37:26;;;;;;;3.10;2.00;;;;;;;22.53;64.89;100765.31;4977070;28;101987;-53
2022/07/22 08:39:53;;;;;;;2.10;1.88;;;;;;;22.54;64.16;100769.72;4975530;28;102523;-53
2022/07/22 08:42:21;;;;;;;3.20;2.15;;;;;;;22.55;64.17;100763.00;4977112;28;102161;-53
2022/07/22 08:44:48;;;;;;;3.33;2.40;;;;;;;22.54;64.87;100772.50;4975978;28;104194;-53
2022/07/22 08:47:20;;;;;;;2.60;1.73;;;;;;;22.53;65.14;100751.44;4967499;28;102362;-53
2022/07/22 08:49:47;;;;;;;3.08;2.10;;;;;;;22.52;65.55;100760.94;4975444;28;102480;-53
2022/07/22 08:52:13;;;;;;;2.33;2.03;;;;;;;22.52;64.94;100758.16;4974519;28;102605;-53
2022/07/22 08:54:40;;;;;;;2.67;2.22;;;;;;;22.52;65.20;100758.16;4965734;28;103874;-53
2022/07/22 08:57:07;;;;;;;3.13;2.22;;;;;;;22.53;64.85;100765.31;4972983;28;102115;-53
2022/07/22 08:59:48;;;;;;;2.58;2.22;;;;;;;22.53;64.60;100756.97;4975988;28;101975;-53
2022/07/22 09:02:17;;;;;;;2.30;2.10;;;;;;;22.53;64.77;100755.00;4970287;28;102322;-53
2022/07/22 09:04:51;;;;;;;;;;;;;;;22.54;64.35;100758.63;4975379;28;103917;-53
2022/07/22 09:07:26;;;;;;;2.42;2.22;;;;;;;22.54;65.27;100761.38;4973970;28;102446;-53
2022/07/22 09:09:53;;;;;;;4.15;2.35;;;;;;;22.54;63.48;100755.84;4975166;28;102474;-53
2022/07/22 09:12:22;;;;;;;2.83;2.50;;;;;;;22.57;63.25;100762.63;4976155;28;102556;-53
2022/07/22 09:14:51;;;;;;;3.05;2.53;;;;;;;22.54;64.04;100773.28;4976575;28;104064;-53
2022/07/22 09:17:28;;;;;;;3.03;2.40;;;;;;;22.54;64.52;100784.38;4975317;28;102074;-53
2022/07/22 09:19:56;;;;;;;2.60;2.20;;;;;;;22.54;64.02;100767.75;4976169;28;102415;-53
2022/07/22 09:22:34;;;;;;;4.63;2.50;;;;;;;22.53;64.67;100781.94;4976599;28;102221;-53
2022/07/22 09:25:25;;;;;;;4.72;2.38;;;;;;;22.50;65.81;100793.72;4974972;28;108212;-53
2022/07/22 09:27:56;;;;;;;2.33;2.00;;;;;;;22.52;65.12;100780.34;4960384;28;102278;-53
2022/07/22 09:30:25;;;;;;;2.83;2.10;;;;;;;22.52;65.10;100786.69;4975032;28;102381;-53
2022/07/22 09:32:57;;;;;;;3.53;2.70;;;;;;;22.50;64.93;100780.69;4976396;28;102296;-53
2022/07/22 09:35:24;;;;;;;2.70;2.50;;;;;;;22.50;65.47;100785.41;4975164;28;104070;-53
2022/07/22 09:37:54;;;;;;;3.10;2.80;;;;;;;22.49;65.16;100795.69;4975809;28;102256;-53
2022/07/22 09:40:23;;;;;;;2.95;2.28;;;;;;;22.50;65.76;100802.06;4974268;28;103052;-53
2022/07/22 09:42:52;;;;;;;3.55;2.13;;;;;;;22.48;65.92;100788.53;4972286;28;102258;-53
2022/07/22 09:45:21;;;;;;;2.63;2.40;;;;;;;22.46;66.22;100787.28;4974506;28;103990;-53
2022/07/22 09:47:49;;;;;;;2.88;2.35;;;;;;;22.47;65.83;100792.50;4966154;28;102107;-53
2022/07/22 09:50:25;;;;;;;2.72;2.53;;;;;;;22.49;66.16;100792.13;4975139;28;102035;-53
2022/07/22 09:52:53;;;;;;;2.50;2.30;;;;;;;22.49;64.85;100792.94;4976233;28;102482;-53
2022/07/22 09:55:22;;;;;;;2.73;2.50;;;;;;;22.47;65.94;100780.59;4971320;28;104100;-53
2022/07/22 09:57:50;;;;;;;2.35;2.15;;;;;;;22.48;65.59;100788.53;4966460;28;102683;-53
2022/07/22 10:00:20;;;;;;;3.42;2.40;;;;;;;22.48;66.02;100801.63;4967186;28;104005;-53
2022/07/22 10:02:49;;;;;;;2.42;2.08;;;;;;;22.46;65.92;100792.81;4976197;28;102216;-53
2022/07/22 10:05:18;;;;;;;7.47;2.50;;;;;;;22.45;65.77;100789.25;4973136;28;103990;-53
2022/07/22 10:07:47;;;;;;;3.03;2.30;;;;;;;22.45;65.79;100802.31;4975626;28;102277;-53
2022/07/22 10:10:14;;;;;;;;;;;;;;;22.47;64.29;100794.47;4974292;28;101866;-53
2022/07/22 10:12:42;;;;;;;3.50;2.60;;;;;;;22.48;65.75;100796.06;4975119;28;102321;-53
2022/07/22 10:15:11;;;;;;;2.58;2.22;;;;;;;22.45;66.11;100799.53;4973729;28;104102;-53
2022/07/22 10:17:41;;;;;;;2.73;2.30;;;;;;;22.42;66.15;100803.00;4975455;28;104631;-53
2022/07/22 10:20:09;;;;;;;3.85;2.45;;;;;;;22.43;66.01;100796.28;4974982;28;102365;-53
2022/07/22 10:22:51;;;;;;;2.72;2.53;;;;;;;22.46;65.51;100795.59;4973785;28;102173;-53
2022/07/22 10:25:20;;;;;;;3.75;2.60;;;;;;;22.43;66.09;100810.16;4973645;28;103917;-53
2022/07/22 10:27:48;;;;;;;2.90;2.30;;;;;;;22.42;65.86;100805.78;4970191;28;102656;-53
2022/07/22 10:30:19;;;;;;;3.33;2.35;;;;;;;22.45;62.93;100796.75;4975189;28;102468;-53
2022/07/22 10:33:00;;;;;;;3.97;2.33;;;;;;;22.47;65.39;100800.00;4971602;28;102413;-53
2022/07/22 10:35:27;;;;;;;2.85;1.83;;;;;;;22.45;63.31;100808.66;4964323;28;104080;-53
2022/07/22 10:38:01;;;;;;;3.40;2.00;;;;;;;22.50;63.75;100804.81;4973473;28;102075;-53
2022/07/22 10:40:30;;;;;;;2.17;1.98;;;;;;;22.45;64.91;100807.84;4975164;28;102711;-53
2022/07/22 10:43:09;;;;;;;4.47;2.22;;;;;;;22.48;64.31;100807.16;4973028;28;102400;-53
2022/07/22 10:45:39;;;;;;;4.95;2.35;;;;;;;22.50;64.90;100804.81;4971753;28;103933;-53
2022/07/22 10:48:10;;;;;;;2.47;2.08;;;;;;;22.47;65.40;100811.09;4972779;28;102314;-53
2022/07/22 10:50:42;;;;;;;2.22;2.03;;;;;;;22.46;62.53;100803.91;4974575;28;102377;-53
2022/07/22 10:53:14;;;;;;;2.58;2.05;;;;;;;22.49;63.28;100808.75;4979051;28;102560;-53
2022/07/22 10:55:59;;;;;;;4.10;1.92;;;;;;;22.46;64.83;100795.59;4969355;28;104441;-53
2022/07/22 10:58:46;;;;;;;2.15;1.95;;;;;;;22.47;61.59;100806.34;4978572;28;102307;-53
2022/07/22 11:01:14;;;;;;;1.95;1.85;;;;;;;22.48;65.07;100804.38;4976928;28;102657;-53
2022/07/22 11:03:43;;;;;;;4.10;1.88;;;;;;;22.44;65.34;100800.69;4975737;28;102187;-53
2022/07/22 11:06:25;;;;;;;3.63;1.60;;;;;;;22.44;61.64;100806.25;4974101;28;104003;-53
2022/07/22 11:08:56;;;;;;;1.60;1.50;;;;;;;22.46;65.25;100793.63;4978790;28;101877;-53
2022/07/22 11:11:40;;;;;;;1.80;1.70;;;;;;;22.46;65.28;100792.81;4978330;28;102232;-53
2022/07/22 11:14:20;;;;;;;1.60;1.50;;;;;;;22.42;64.35;100803.00;4978467;28;102369;-53
2022/07/22 11:16:48;;;;;;;2.08;1.55;;;;;;;22.43;65.55;100807.38;4976646;28;104069;-53
2022/07/22 11:19:20;;;;;;;1.95;1.75;;;;;;;22.39;65.81;100804.50;4977026;28;101941;-53
2022/07/22 11:21:51;;;;;;;1.98;1.70;;;;;;;22.40;65.67;100805.34;4977223;28;102580;-53